createdAt,value
2019-05-03T00:01:04.030Z,78.10
2019-05-03T00:03:33.504Z,78.10
2019-05-03T00:06:04.487Z,78.20
2019-05-03T00:08:34.316Z,78.20
2019-05-03T00:11:04.172Z,78.10
2019-05-03T00:13:33.812Z,78.00
2019-05-03T00:16:12.206Z,77.90
2019-05-03T00:18:42.193Z,77.90
2019-05-03T00:21:11.764Z,77.90
2019-05-03T00:26:11.949Z,77.70
2019-05-03T00:28:42.627Z,77.70
2019-05-03T00:31:12.587Z,77.70
2019-05-03T00:33:43.706Z,77.70
2019-05-03T00:36:15.124Z,77.80
2019-05-03T00:38:44.563Z,77.80
2019-05-03T00:41:14.118Z,77.90
2019-05-03T00:43:43.727Z,78.00
2019-05-03T00:46:13.468Z,78.10
2019-05-03T00:48:43.164Z,78.10
2019-05-03T00:51:12.726Z,78.20
2019-05-03T00:53:42.421Z,78.30
2019-05-03T00:56:12.347Z,78.40
2019-05-03T00:58:49.084Z,78.60
2019-05-03T01:01:19.119Z,78.60
2019-05-03T01:03:48.801Z,78.80
2019-05-03T01:06:18.247Z,78.80
2019-05-03T01:08:47.558Z,78.90
2019-05-03T01:11:16.972Z,79.10
2019-05-03T01:13:46.690Z,79.20
2019-05-03T01:16:22.576Z,79.00
2019-05-03T01:18:52.454Z,79.00
2019-05-03T01:21:22.698Z,78.80
2019-05-03T01:23:52.842Z,78.70
2019-05-03T01:26:22.968Z,78.60
2019-05-03T01:28:52.783Z,78.50
2019-05-03T01:31:22.941Z,78.60
2019-05-03T01:33:53.005Z,78.40
2019-05-03T01:36:23.116Z,78.40
2019-05-03T01:38:53.155Z,78.30
2019-05-03T01:41:23.091Z,78.20
2019-05-03T01:43:52.949Z,78.10
2019-05-03T01:46:22.979Z,78.10
2019-05-03T01:49:01.592Z,78.10
2019-05-03T01:51:48.733Z,78.00
2019-05-03T01:54:18.219Z,78.00
2019-05-03T01:56:56.904Z,78.00
2019-05-03T01:59:19.208Z,78.00
2019-05-03T02:01:53.287Z,78.00
2019-05-03T02:04:27.370Z,77.90
2019-05-03T02:06:56.787Z,78.00
2019-05-03T02:09:26.763Z,78.10
2019-05-03T02:11:56.159Z,78.10
2019-05-03T02:14:25.916Z,78.00
2019-05-03T02:16:55.515Z,78.20
2019-05-03T02:19:25.085Z,78.10
2019-05-03T02:21:55.148Z,78.10
2019-05-03T02:26:53.305Z,78.20
2019-05-03T02:29:22.797Z,78.30
2019-05-03T02:31:53.515Z,78.30
2019-05-03T02:34:24.015Z,78.50
2019-05-03T02:36:53.904Z,78.60
2019-05-03T02:39:23.576Z,78.70
2019-05-03T02:44:23.154Z,79.00
2019-05-03T02:46:59.893Z,79.10
2019-05-03T02:49:39.675Z,79.10
2019-05-03T02:52:10.775Z,79.10
2019-05-03T02:54:40.440Z,79.10
2019-05-03T02:57:09.859Z,79.10
2019-05-03T02:59:39.749Z,79.10
2019-05-03T03:02:09.413Z,79.20
2019-05-03T03:04:38.822Z,79.00
2019-05-03T03:07:08.532Z,79.00
2019-05-03T03:12:06.970Z,79.70
2019-05-03T03:17:06.618Z,78.90
2019-05-03T03:19:36.820Z,78.90
2019-05-03T03:22:07.941Z,79.00
2019-05-03T03:24:38.779Z,79.00
2019-05-03T03:27:08.240Z,79.10
2019-05-03T03:29:37.978Z,79.10
2019-05-03T03:32:18.354Z,79.00
2019-05-03T03:35:03.620Z,79.00
2019-05-03T03:37:30.147Z,79.00
2019-05-03T03:39:59.582Z,79.00
2019-05-03T03:42:29.650Z,79.00
2019-05-03T03:44:59.495Z,79.00
2019-05-03T03:47:28.928Z,78.80
2019-05-03T03:49:59.004Z,78.80
2019-05-03T03:52:28.616Z,78.70
2019-05-03T03:54:58.355Z,78.70
2019-05-03T03:59:57.048Z,78.70
2019-05-03T04:02:26.718Z,78.70
2019-05-03T04:07:26.468Z,78.50
2019-05-03T04:09:56.572Z,78.50
2019-05-03T04:12:26.891Z,78.40
2019-05-03T04:14:58.539Z,78.40
2019-05-03T04:17:46.600Z,78.50
2019-05-03T04:20:17.689Z,78.40
2019-05-03T04:25:15.924Z,78.40
2019-05-03T04:30:16.463Z,78.10
2019-05-03T04:32:45.830Z,78.00
2019-05-03T04:37:45.313Z,77.80
2019-05-03T04:40:15.946Z,78.70
2019-05-03T04:52:40.691Z,77.80
2019-05-03T04:57:45.424Z,77.40
2019-05-03T05:39:37.131Z,75.40
2019-05-03T05:44:47.747Z,75.10
2019-05-03T05:59:29.571Z,75.10
2019-05-03T08:39:51.430Z,60.40
2019-05-03T08:48:01.266Z,59.90
2019-05-03T09:07:06.449Z,56.80
2019-05-03T12:12:29.491Z,48.30
2019-05-03T12:24:17.140Z,48.50
2019-05-03T12:26:49.932Z,48.80
2019-05-03T12:38:00.868Z,49.20
2019-05-03T12:40:30.176Z,49.30
2019-05-03T12:42:59.377Z,49.20
2019-05-03T12:45:28.618Z,49.20
2019-05-03T12:47:57.844Z,49.70
2019-05-03T12:50:27.170Z,50.00
2019-05-03T12:55:39.376Z,50.40
2019-05-03T13:04:45.294Z,51.30
2019-05-03T13:07:24.100Z,51.50
2019-05-03T13:10:05.905Z,51.80
2019-05-03T13:23:54.727Z,51.40
2019-05-03T13:44:35.672Z,51.20
2019-05-03T13:47:05.290Z,51.30
2019-05-03T13:49:44.651Z,51.20
2019-05-03T13:55:15.912Z,51.80
2019-05-03T13:57:46.028Z,52.30
2019-05-03T14:00:15.570Z,52.50
2019-05-03T14:02:45.092Z,52.40
2019-05-03T14:05:17.246Z,52.50
2019-05-03T14:07:46.671Z,52.90
2019-05-03T14:10:17.093Z,52.10
2019-05-03T14:12:46.381Z,52.20
2019-05-03T14:15:15.807Z,52.40
2019-05-03T14:17:45.391Z,52.60
2019-05-03T14:20:16.686Z,52.50
2019-05-03T14:22:47.950Z,52.60
2019-05-03T14:25:17.389Z,52.60
2019-05-03T14:27:46.873Z,52.90
2019-05-03T14:30:16.852Z,53.20
2019-05-03T14:32:46.049Z,53.00
2019-05-03T14:35:16.268Z,52.90
2019-05-03T14:37:46.056Z,53.00
2019-05-03T14:40:15.270Z,53.00
2019-05-03T14:42:44.784Z,53.00
2019-05-03T14:45:15.077Z,53.30
2019-05-03T14:47:44.373Z,53.60
2019-05-03T14:50:14.976Z,53.70
2019-05-03T14:52:45.476Z,53.80
2019-05-03T14:55:19.376Z,53.90
2019-05-03T14:58:05.964Z,54.10
2019-05-03T15:00:39.788Z,54.20
2019-05-03T15:03:10.666Z,54.00
2019-05-03T15:05:40.021Z,53.90
2019-05-03T15:08:09.246Z,54.00
2019-05-03T15:10:38.420Z,53.60
2019-05-03T15:13:07.631Z,53.10
2019-05-03T15:15:36.843Z,53.10
2019-05-03T15:18:06.128Z,53.40
2019-05-03T15:20:35.367Z,53.70
2019-05-03T15:23:05.560Z,53.70
2019-05-03T15:25:34.930Z,54.00
2019-05-03T15:28:05.061Z,54.50
2019-05-03T15:30:35.283Z,54.80
2019-05-03T15:33:05.168Z,54.90
2019-05-03T15:35:35.096Z,54.90
2019-05-03T15:38:05.462Z,54.90
2019-05-03T15:40:34.850Z,55.10
2019-05-03T15:43:05.778Z,55.20
2019-05-03T15:45:39.308Z,55.40
2019-05-03T15:48:15.749Z,55.70
2019-05-03T15:50:44.962Z,55.70
2019-05-03T15:53:15.176Z,55.70
2019-05-03T15:55:44.508Z,55.80
2019-05-03T15:58:15.340Z,55.80
2019-05-03T16:00:44.991Z,55.80
2019-05-03T16:03:14.602Z,55.90
2019-05-03T16:05:44.740Z,56.00
2019-05-03T16:08:15.429Z,56.00
2019-05-03T16:10:45.706Z,56.20
2019-05-03T16:13:15.120Z,56.20
2019-05-03T16:15:44.608Z,56.30
2019-05-03T16:18:14.821Z,56.80
2019-05-03T16:20:45.083Z,57.20
2019-05-03T16:23:15.407Z,57.20
2019-05-03T16:25:45.021Z,57.50
2019-05-03T16:28:20.408Z,57.70
2019-05-03T16:30:55.475Z,57.90
2019-05-03T16:33:27.921Z,57.90
2019-05-03T16:35:55.434Z,58.00
2019-05-03T16:38:25.013Z,58.80
2019-05-03T16:40:54.597Z,58.10
2019-05-03T16:43:25.701Z,58.70
2019-05-03T16:45:55.246Z,58.20
2019-05-03T16:48:24.819Z,58.30
2019-05-03T16:50:54.057Z,58.40
2019-05-03T16:53:25.366Z,58.30
2019-05-03T16:55:54.835Z,58.20
2019-05-03T16:58:24.752Z,58.10
2019-05-03T17:00:55.330Z,58.00
2019-05-03T17:03:37.930Z,57.90
2019-05-03T17:06:04.839Z,57.90
2019-05-03T17:08:50.548Z,58.00
2019-05-03T17:11:21.380Z,58.20
2019-05-03T17:13:50.589Z,58.30
2019-05-03T17:16:19.952Z,58.50
2019-05-03T17:18:49.144Z,58.60
2019-05-03T17:21:18.330Z,58.70
2019-05-03T17:23:47.578Z,58.70
2019-05-03T17:26:17.666Z,58.70
2019-05-03T17:28:46.894Z,58.90
2019-05-03T17:31:16.109Z,59.00
2019-05-03T17:33:53.177Z,58.90
2019-05-03T17:36:16.230Z,58.80
2019-05-03T17:38:46.568Z,58.80
2019-05-03T17:41:29.500Z,58.70
2019-05-03T17:44:00.410Z,58.50
2019-05-03T17:46:29.638Z,58.30
2019-05-03T17:48:58.834Z,58.20
2019-05-03T17:51:38.441Z,58.20
2019-05-03T17:54:27.189Z,58.10
2019-05-03T17:57:04.592Z,58.10
2019-05-03T17:59:35.495Z,58.20
2019-05-03T18:02:22.503Z,58.20
2019-05-03T18:04:54.999Z,58.30
2019-05-03T18:07:41.731Z,58.40
2019-05-03T18:10:11.611Z,58.50
2019-05-03T18:12:40.928Z,58.60
2019-05-03T18:15:10.287Z,59.30
2019-05-03T18:17:39.605Z,58.70
2019-05-03T18:20:08.802Z,58.70
2019-05-03T18:22:38.908Z,58.80
2019-05-03T18:25:08.222Z,58.70
2019-05-03T18:27:37.422Z,58.70
2019-05-03T18:30:07.613Z,58.70
2019-05-03T18:32:36.891Z,58.70
2019-05-03T18:35:06.915Z,58.70
2019-05-03T18:37:36.195Z,58.70
2019-05-03T18:40:07.004Z,58.70
2019-05-03T18:42:55.197Z,58.70
2019-05-03T18:45:37.899Z,58.70
2019-05-03T18:48:07.339Z,58.80
2019-05-03T18:50:36.673Z,58.70
2019-05-03T18:53:05.865Z,58.80
2019-05-03T18:55:35.185Z,58.90
2019-05-03T18:58:04.403Z,58.90
2019-05-03T19:00:35.086Z,58.90
2019-05-03T19:03:04.407Z,59.00
2019-05-03T19:05:35.275Z,59.20
2019-05-03T19:08:06.145Z,59.30
2019-05-03T19:10:36.961Z,59.40
2019-05-03T19:13:14.990Z,59.60
2019-05-03T19:15:44.501Z,59.80
2019-05-03T19:18:15.492Z,60.40
2019-05-03T19:20:45.528Z,61.00
2019-05-03T19:23:15.413Z,61.60
2019-05-03T19:25:49.161Z,62.00
2019-05-03T19:28:16.725Z,62.30
2019-05-03T19:30:46.871Z,62.70
2019-05-03T19:33:16.031Z,62.90
2019-05-03T19:35:45.294Z,62.80
2019-05-03T19:38:15.206Z,62.80
2019-05-03T19:40:45.359Z,62.90
2019-05-03T19:43:15.252Z,62.90
2019-05-03T19:45:44.967Z,63.00
2019-05-03T19:48:14.771Z,62.90
2019-05-03T19:50:45.104Z,63.00
2019-05-03T19:53:18.731Z,63.10
2019-05-03T19:55:50.507Z,63.10
2019-05-03T19:58:18.991Z,63.10
2019-05-03T20:01:01.822Z,63.30
2019-05-03T20:03:32.733Z,63.40
2019-05-03T20:06:14.377Z,63.20
2019-05-03T20:08:44.986Z,63.30
2019-05-03T20:11:15.211Z,63.30
2019-05-03T20:13:45.356Z,63.40
2019-05-03T20:16:15.542Z,63.30
2019-05-03T20:18:45.579Z,64.20
2019-05-03T20:21:15.271Z,63.50
2019-05-03T20:23:47.052Z,63.70
2019-05-03T20:26:15.561Z,63.80
2019-05-03T20:28:45.215Z,64.00
2019-05-03T20:31:14.655Z,64.30
2019-05-03T20:33:45.760Z,64.50
2019-05-03T20:36:16.187Z,65.00
2019-05-03T20:38:45.573Z,65.30
2019-05-03T20:41:14.995Z,65.40
2019-05-03T20:43:49.116Z,65.80
2019-05-03T20:46:20.133Z,66.00
2019-05-03T20:48:51.196Z,65.90
2019-05-03T20:51:20.504Z,66.00
2019-05-03T20:53:49.871Z,66.10
2019-05-03T20:56:19.255Z,66.30
2019-05-03T20:58:48.541Z,66.60
2019-05-03T21:01:17.876Z,67.00
2019-05-03T21:03:47.204Z,67.50
2019-05-03T21:06:16.414Z,67.70
2019-05-03T21:08:52.973Z,68.00
2019-05-03T21:11:16.714Z,68.40
2019-05-03T21:13:45.913Z,68.50
2019-05-03T21:16:16.749Z,68.90
2019-05-03T21:18:47.688Z,69.30
2019-05-03T21:21:21.208Z,69.70
2019-05-03T21:24:10.026Z,70.00
2019-05-03T21:26:39.500Z,70.20
2019-05-03T21:29:08.747Z,70.40
2019-05-03T21:31:38.016Z,70.70
2019-05-03T21:34:07.205Z,71.00
2019-05-03T21:36:36.422Z,71.10
2019-05-03T21:39:06.921Z,71.20
2019-05-03T21:41:38.059Z,71.20
2019-05-03T21:44:07.283Z,71.40
2019-05-03T21:46:41.099Z,71.70
2019-05-03T21:49:11.936Z,71.90
2019-05-03T21:51:41.133Z,71.90
2019-05-03T21:54:10.379Z,72.10
2019-05-03T21:56:39.620Z,72.20
2019-05-03T21:59:08.882Z,72.30
2019-05-03T22:01:39.763Z,72.60
2019-05-03T22:04:08.956Z,72.70
2019-05-03T22:06:38.204Z,72.80
2019-05-03T22:09:07.524Z,73.10
2019-05-03T22:11:36.757Z,73.50
2019-05-03T22:14:07.656Z,73.60
2019-05-03T22:16:45.022Z,73.70
2019-05-03T22:19:17.838Z,73.80
2019-05-03T22:21:49.711Z,73.70
2019-05-03T22:24:38.232Z,73.80
2019-05-03T22:27:09.154Z,73.90
2019-05-03T22:29:38.346Z,74.00
2019-05-03T22:32:07.624Z,74.20
2019-05-03T22:34:36.796Z,74.40
2019-05-03T22:37:06.117Z,74.50
2019-05-03T22:39:35.407Z,74.60
2019-05-03T22:42:04.729Z,74.80
2019-05-03T22:44:35.647Z,75.00
2019-05-03T22:47:05.537Z,75.00
2019-05-03T22:49:37.182Z,75.10
2019-05-03T22:52:05.873Z,75.10
2019-05-03T22:54:35.203Z,75.30
2019-05-03T22:57:04.913Z,75.30
2019-05-03T22:59:34.540Z,75.40
2019-05-03T23:02:03.993Z,75.50
2019-05-03T23:04:33.207Z,75.60
2019-05-03T23:07:02.365Z,75.80
2019-05-03T23:09:31.615Z,75.80
2019-05-03T23:12:00.788Z,75.90
2019-05-03T23:14:29.986Z,76.00
2019-05-03T23:16:59.262Z,76.30
2019-05-03T23:19:28.612Z,76.30
2019-05-03T23:21:59.564Z,76.40
2019-05-03T23:24:28.760Z,76.70
2019-05-03T23:26:58.022Z,76.70
2019-05-03T23:29:27.248Z,76.80
2019-05-03T23:31:56.531Z,76.70
2019-05-03T23:34:25.698Z,76.90
2019-05-03T23:36:54.966Z,77.10
2019-05-03T23:39:24.929Z,77.00
2019-05-03T23:41:55.731Z,77.00
2019-05-03T23:44:25.079Z,77.10
2019-05-03T23:47:01.950Z,77.10
2019-05-03T23:49:31.258Z,77.20
2019-05-03T23:52:02.158Z,77.30
2019-05-03T23:54:31.336Z,77.60
2019-05-03T23:57:00.646Z,77.60
2019-05-03T23:59:29.982Z,77.50
